Аэропорт: Остафьево. Москва

ICAO: UUMO

METAR:
2018/07/16 19:30
UUMO 161930Z 09006MPS 9999 BKN033CB 25/19 Q1008 R08/090060 TEMPO -TSRA SCT015CB RMK QFE742/0989
METAR:
Информация по данной станции не доступна